sensor_id;sensor_type;location;lat;lon;timestamp;pressure;altitude;pressure_sealevel;temperature;humidity
78313;BME280;67568;47.438;21.408;2023-07-02T00:01:56;99524.78;;;21.85;70.39
78313;BME280;67568;47.438;21.408;2023-07-02T00:04:23;99524.41;;;21.90;69.96
78313;BME280;67568;47.438;21.408;2023-07-02T00:06:51;99523.59;;;21.86;70.23
78313;BME280;67568;47.438;21.408;2023-07-02T00:09:18;99521.13;;;21.74;70.52
78313;BME280;67568;47.438;21.408;2023-07-02T00:11:45;99513.09;;;21.72;71.06
78313;BME280;67568;47.438;21.408;2023-07-02T00:14:13;99512.28;;;21.72;70.96
78313;BME280;67568;47.438;21.408;2023-07-02T00:16:43;99518.31;;;21.67;71.38
78313;BME280;67568;47.438;21.408;2023-07-02T00:19:13;99522.78;;;21.75;71.07
78313;BME280;67568;47.438;21.408;2023-07-02T00:21:40;99522.72;;;21.68;71.60
78313;BME280;67568;47.438;21.408;2023-07-02T00:24:08;99517.09;;;21.68;71.70
78313;BME280;67568;47.438;21.408;2023-07-02T00:26:37;99519.13;;;21.71;71.84
78313;BME280;67568;47.438;21.408;2023-07-02T00:29:04;99527.94;;;21.59;72.32
78313;BME280;67568;47.438;21.408;2023-07-02T00:31:31;99532.00;;;21.65;72.15
78313;BME280;67568;47.438;21.408;2023-07-02T00:33:59;99522.72;;;21.68;71.88
78313;BME280;67568;47.438;21.408;2023-07-02T00:36:25;99521.88;;;21.53;73.42
78313;BME280;67568;47.438;21.408;2023-07-02T00:38:52;99517.03;;;21.53;72.60
78313;BME280;67568;47.438;21.408;2023-07-02T00:41:19;99523.53;;;21.61;72.20
78313;BME280;67568;47.438;21.408;2023-07-02T00:43:45;99515.50;;;21.63;71.99
78313;BME280;67568;47.438;21.408;2023-07-02T00:46:16;99515.50;;;21.67;72.17
78313;BME280;67568;47.438;21.408;2023-07-02T00:48:46;99522.31;;;21.66;72.08
78313;BME280;67568;47.438;21.408;2023-07-02T00:51:24;99522.69;;;21.53;73.68
78313;BME280;67568;47.438;21.408;2023-07-02T00:53:57;99527.94;;;21.59;72.77
78313;BME280;67568;47.438;21.408;2023-07-02T00:56:25;99524.72;;;21.56;72.70
78313;BME280;67568;47.438;21.408;2023-07-02T00:58:54;99533.16;;;21.53;73.15
78313;BME280;67568;47.438;21.408;2023-07-02T01:01:22;99529.91;;;21.51;73.32
78313;BME280;67568;47.438;21.408;2023-07-02T01:04:04;99538.00;;;21.49;73.61
78313;BME280;67568;47.438;21.408;2023-07-02T01:06:33;99546.03;;;21.43;73.53
78313;BME280;67568;47.438;21.408;2023-07-02T01:09:03;99548.75;;;21.32;74.15
78313;BME280;67568;47.438;21.408;2023-07-02T01:11:32;99543.84;;;21.26;74.99
78313;BME280;67568;47.438;21.408;2023-07-02T01:14:02;99549.06;;;21.17;75.49
78313;BME280;67568;47.438;21.408;2023-07-02T01:16:30;99541.75;;;21.08;76.29
78313;BME280;67568;47.438;21.408;2023-07-02T01:18:57;99538.09;;;21.01;76.36
78313;BME280;67568;47.438;21.408;2023-07-02T01:21:25;99537.28;;;21.00;75.95
78313;BME280;67568;47.438;21.408;2023-07-02T01:23:52;99537.69;;;20.99;75.95
78313;BME280;67568;47.438;21.408;2023-07-02T01:26:19;99534.06;;;20.98;75.97
78313;BME280;67568;47.438;21.408;2023-07-02T01:28:47;99539.28;;;21.00;76.33
78313;BME280;67568;47.438;21.408;2023-07-02T01:31:13;99537.69;;;21.02;75.59
78313;BME280;67568;47.438;21.408;2023-07-02T01:33:40;99533.63;;;20.96;77.08
78313;BME280;67568;47.438;21.408;2023-07-02T01:36:07;99532.91;;;21.06;76.42
78313;BME280;67568;47.438;21.408;2023-07-02T01:38:34;99534.50;;;21.07;76.26
78313;BME280;67568;47.438;21.408;2023-07-02T01:41:01;99527.28;;;21.10;76.01
78313;BME280;67568;47.438;21.408;2023-07-02T01:43:27;99536.97;;;21.13;76.37
78313;BME280;67568;47.438;21.408;2023-07-02T01:45:54;99537.78;;;21.17;75.64
78313;BME280;67568;47.438;21.408;2023-07-02T01:48:21;99532.06;;;21.02;77.07
78313;BME280;67568;47.438;21.408;2023-07-02T01:50:48;99533.72;;;21.10;75.96
78313;BME280;67568;47.438;21.408;2023-07-02T01:53:18;99530.53;;;21.16;75.47
78313;BME280;67568;47.438;21.408;2023-07-02T01:55:45;99537.78;;;21.17;76.02
78313;BME280;67568;47.438;21.408;2023-07-02T01:58:12;99546.63;;;21.15;76.11
78313;BME280;67568;47.438;21.408;2023-07-02T02:00:38;99545.06;;;21.18;75.95
78313;BME280;67568;47.438;21.408;2023-07-02T02:03:05;99537.38;;;21.15;76.08
78313;BME280;67568;47.438;21.408;2023-07-02T02:05:32;99541.38;;;21.14;76.09
78313;BME280;67568;47.438;21.408;2023-07-02T02:07:59;99550.63;;;21.10;76.21
78313;BME280;67568;47.438;21.408;2023-07-02T02:10:25;99543.78;;;21.11;76.31
78313;BME280;67568;47.438;21.408;2023-07-02T02:12:52;99540.97;;;21.11;76.32
78313;BME280;67568;47.438;21.408;2023-07-02T02:15:19;99544.63;;;21.12;76.75
78313;BME280;67568;47.438;21.408;2023-07-02T02:17:45;99539.34;;;21.03;76.73
78313;BME280;67568;47.438;21.408;2023-07-02T02:20:12;99550.22;;;21.08;76.69
78313;BME280;67568;47.438;21.408;2023-07-02T02:22:39;99547.78;;;21.07;76.87
78313;BME280;67568;47.438;21.408;2023-07-02T02:25:06;99547.38;;;21.08;76.65
78313;BME280;67568;47.438;21.408;2023-07-02T02:27:33;99549.81;;;21.10;76.70
78313;BME280;67568;47.438;21.408;2023-07-02T02:30:00;99551.06;;;21.13;76.56
78313;BME280;67568;47.438;21.408;2023-07-02T02:32:27;99549.03;;;21.09;76.81
78313;BME280;67568;47.438;21.408;2023-07-02T02:34:53;99558.25;;;21.06;77.45
78313;BME280;67568;47.438;21.408;2023-07-02T02:37:21;99544.13;;;21.03;77.67
78313;BME280;67568;47.438;21.408;2023-07-02T02:39:47;99552.22;;;21.04;77.33
78313;BME280;67568;47.438;21.408;2023-07-02T02:42:14;99551.78;;;21.06;77.58
78313;BME280;67568;47.438;21.408;2023-07-02T02:44:41;99541.75;;;21.05;78.14
78313;BME280;67568;47.438;21.408;2023-07-02T02:47:08;99547.78;;;21.03;77.77
78313;BME280;67568;47.438;21.408;2023-07-02T02:49:37;99548.88;;;20.88;79.01
78313;BME280;67568;47.438;21.408;2023-07-02T02:52:04;99549.28;;;20.90;78.72
78313;BME280;67568;47.438;21.408;2023-07-02T02:54:30;99555.78;;;20.98;78.23
78313;BME280;67568;47.438;21.408;2023-07-02T02:56:57;99557.75;;;20.90;79.25
78313;BME280;67568;47.438;21.408;2023-07-02T02:59:24;99561.28;;;20.80;79.48
78313;BME280;67568;47.438;21.408;2023-07-02T03:01:51;99553.34;;;20.96;78.57
78313;BME280;67568;47.438;21.408;2023-07-02T03:04:18;99557.41;;;21.02;78.62
78313;BME280;67568;47.438;21.408;2023-07-02T03:06:45;99556.97;;;20.93;78.87
78313;BME280;67568;47.438;21.408;2023-07-02T03:09:11;99557.75;;;20.94;78.62
78313;BME280;67568;47.438;21.408;2023-07-02T03:11:38;99548.97;;;21.02;78.49
78313;BME280;67568;47.438;21.408;2023-07-02T03:14:05;99549.75;;;21.03;78.05
78313;BME280;67568;47.438;21.408;2023-07-02T03:16:32;99559.06;;;21.03;78.21
78313;BME280;67568;47.438;21.408;2023-07-02T03:18:59;99561.88;;;21.03;77.82
78313;BME280;67568;47.438;21.408;2023-07-02T03:21:25;99550.59;;;21.03;77.99
78313;BME280;67568;47.438;21.408;2023-07-02T03:23:52;99561.88;;;21.03;77.60
78313;BME280;67568;47.438;21.408;2023-07-02T03:26:19;99563.03;;;21.02;78.45
78313;BME280;67568;47.438;21.408;2023-07-02T03:28:45;99566.22;;;20.97;78.33
78313;BME280;67568;47.438;21.408;2023-07-02T03:31:12;99552.97;;;20.98;78.73
78313;BME280;67568;47.438;21.408;2023-07-02T03:33:39;99552.91;;;20.87;79.31
78313;BME280;67568;47.438;21.408;2023-07-02T03:36:06;99566.22;;;20.94;78.69
78313;BME280;67568;47.438;21.408;2023-07-02T03:38:32;99561.38;;;20.91;78.71
78313;BME280;67568;47.438;21.408;2023-07-02T03:40:59;99555.72;;;20.91;79.05
78313;BME280;67568;47.438;21.408;2023-07-02T03:43:26;99558.53;;;20.91;79.28
78313;BME280;67568;47.438;21.408;2023-07-02T03:45:53;99556.06;;;20.82;79.18
78313;BME280;67568;47.438;21.408;2023-07-02T03:48:19;99554.47;;;20.81;79.36
78313;BME280;67568;47.438;21.408;2023-07-02T03:50:46;99552.47;;;20.85;79.45
78313;BME280;67568;47.438;21.408;2023-07-02T03:53:13;99569.00;;;20.86;79.99
78313;BME280;67568;47.438;21.408;2023-07-02T03:55:40;99563.38;;;20.90;79.06
78313;BME280;67568;47.438;21.408;2023-07-02T03:58:06;99569.78;;;20.87;79.74
78313;BME280;67568;47.438;21.408;2023-07-02T04:00:33;99574.63;;;20.90;80.00
78313;BME280;67568;47.438;21.408;2023-07-02T04:03:00;99579.06;;;20.91;80.00
78313;BME280;67568;47.438;21.408;2023-07-02T04:05:27;99577.03;;;20.88;80.26
78313;BME280;67568;47.438;21.408;2023-07-02T04:07:54;99582.25;;;20.86;80.15
78313;BME280;67568;47.438;21.408;2023-07-02T04:10:21;99584.56;;;20.73;81.57
78313;BME280;67568;47.438;21.408;2023-07-02T04:12:48;99589.88;;;20.82;80.81
78313;BME280;67568;47.438;21.408;2023-07-02T04:15:14;99585.78;;;20.76;81.50
78313;BME280;67568;47.438;21.408;2023-07-02T04:17:41;99587.38;;;20.73;80.98
78313;BME280;67568;47.438;21.408;2023-07-02T04:20:09;99595.03;;;20.76;80.90
78313;BME280;67568;47.438;21.408;2023-07-02T04:22:36;99593.03;;;20.77;81.63
78313;BME280;67568;47.438;21.408;2023-07-02T04:25:02;99596.63;;;20.74;81.87
78313;BME280;67568;47.438;21.408;2023-07-02T04:27:47;99597.81;;;20.69;82.29
78313;BME280;67568;47.438;21.408;2023-07-02T04:30:17;99598.50;;;20.55;83.64
78313;BME280;67568;47.438;21.408;2023-07-02T04:32:44;99595.00;;;20.69;81.88
78313;BME280;67568;47.438;21.408;2023-07-02T04:35:11;99596.19;;;20.72;81.95
78313;BME280;67568;47.438;21.408;2023-07-02T04:37:37;99590.53;;;20.64;82.56
78313;BME280;67568;47.438;21.408;2023-07-02T04:40:05;99596.25;;;20.75;81.21
78313;BME280;67568;47.438;21.408;2023-07-02T04:42:36;99590.66;;;20.82;81.06
78313;BME280;67568;47.438;21.408;2023-07-02T04:45:07;99597.16;;;20.86;80.66
78313;BME280;67568;47.438;21.408;2023-07-02T04:47:34;99597.53;;;20.88;81.29
78313;BME280;67568;47.438;21.408;2023-07-02T04:50:02;99589.88;;;20.82;81.61
78313;BME280;67568;47.438;21.408;2023-07-02T04:52:29;99587.91;;;20.89;81.30
78313;BME280;67568;47.438;21.408;2023-07-02T04:54:56;99592.34;;;20.94;80.41
78313;BME280;67568;47.438;21.408;2023-07-02T04:57:23;99597.22;;;20.97;80.60
78313;BME280;67568;47.438;21.408;2023-07-02T04:59:50;99600.44;;;20.99;80.28
78313;BME280;67568;47.438;21.408;2023-07-02T05:02:16;99601.31;;;21.03;80.43
78313;BME280;67568;47.438;21.408;2023-07-02T05:04:43;99594.84;;;21.03;80.12
78313;BME280;67568;47.438;21.408;2023-07-02T05:07:10;99602.13;;;21.11;79.62
78313;BME280;67568;47.438;21.408;2023-07-02T05:09:37;99598.53;;;21.14;79.79
78313;BME280;67568;47.438;21.408;2023-07-02T05:12:04;99603.00;;;21.15;79.82
78313;BME280;67568;47.438;21.408;2023-07-02T05:14:31;99605.41;;;21.17;79.29
78313;BME280;67568;47.438;21.408;2023-07-02T05:16:58;99606.25;;;21.21;79.31
78313;BME280;67568;47.438;21.408;2023-07-02T05:19:24;99609.47;;;21.23;79.69
78313;BME280;67568;47.438;21.408;2023-07-02T05:21:51;99605.84;;;21.26;79.13
78313;BME280;67568;47.438;21.408;2023-07-02T05:24:18;99611.09;;;21.27;79.28
78313;BME280;67568;47.438;21.408;2023-07-02T05:26:45;99609.09;;;21.28;79.16
78313;BME280;67568;47.438;21.408;2023-07-02T05:29:12;99614.72;;;21.28;79.03
78313;BME280;67568;47.438;21.408;2023-07-02T05:31:38;99620.38;;;21.31;79.47
78313;BME280;67568;47.438;21.408;2023-07-02T05:34:05;99614.66;;;21.17;79.87
78313;BME280;67568;47.438;21.408;2023-07-02T05:36:32;99618.31;;;21.21;80.13
78313;BME280;67568;47.438;21.408;2023-07-02T05:38:59;99617.91;;;21.23;80.07
78313;BME280;67568;47.438;21.408;2023-07-02T05:41:25;99622.38;;;21.27;79.91
78313;BME280;67568;47.438;21.408;2023-07-02T05:43:54;99621.22;;;21.36;79.06
78313;BME280;67568;47.438;21.408;2023-07-02T05:48:48;99615.22;;;21.37;79.35
78313;BME280;67568;47.438;21.408;2023-07-02T05:51:23;99618.47;;;21.43;79.01
78313;BME280;67568;47.438;21.408;2023-07-02T05:53:50;99629.78;;;21.46;79.17
78313;BME280;67568;47.438;21.408;2023-07-02T05:56:18;99622.16;;;21.50;79.10
78313;BME280;67568;47.438;21.408;2023-07-02T05:58:46;99625.81;;;21.58;78.62
78313;BME280;67568;47.438;21.408;2023-07-02T06:01:14;99628.63;;;21.54;78.58
78313;BME280;67568;47.438;21.408;2023-07-02T06:03:41;99639.50;;;21.56;78.38
78313;BME280;67568;47.438;21.408;2023-07-02T06:06:08;99629.06;;;21.64;77.80
78313;BME280;67568;47.438;21.408;2023-07-02T06:08:35;99629.09;;;21.71;78.34
78313;BME280;67568;47.438;21.408;2023-07-02T06:11:02;99630.75;;;21.79;77.34
78313;BME280;67568;47.438;21.408;2023-07-02T06:13:29;99628.75;;;21.83;77.65
78313;BME280;67568;47.438;21.408;2023-07-02T06:15:55;99627.91;;;21.79;77.90
78313;BME280;67568;47.438;21.408;2023-07-02T06:18:22;99633.63;;;21.90;77.49
78313;BME280;67568;47.438;21.408;2023-07-02T06:20:50;99627.59;;;21.95;77.61
78313;BME280;67568;47.438;21.408;2023-07-02T06:23:17;99628.78;;;21.90;77.69
78313;BME280;67568;47.438;21.408;2023-07-02T06:25:44;99625.16;;;21.97;77.37
78313;BME280;67568;47.438;21.408;2023-07-02T06:28:10;99621.53;;;21.96;77.52
78313;BME280;67568;47.438;21.408;2023-07-02T06:30:37;99617.91;;;21.96;77.24
78313;BME280;67568;47.438;21.408;2023-07-02T06:33:04;99614.69;;;21.94;77.42
78313;BME280;67568;47.438;21.408;2023-07-02T06:35:31;99617.13;;;21.99;77.17
78313;BME280;67568;47.438;21.408;2023-07-02T06:37:57;99623.19;;;21.97;77.59
78313;BME280;67568;47.438;21.408;2023-07-02T06:40:24;99628.81;;;21.97;77.43
78313;BME280;67568;47.438;21.408;2023-07-02T06:42:51;99630.84;;;22.08;76.82
78313;BME280;67568;47.438;21.408;2023-07-02T06:45:18;99625.22;;;22.04;77.10
78313;BME280;67568;47.438;21.408;2023-07-02T06:47:44;99635.72;;;22.14;76.65
78313;BME280;67568;47.438;21.408;2023-07-02T06:50:11;99626.91;;;22.23;76.27
78313;BME280;67568;47.438;21.408;2023-07-02T06:52:38;99621.66;;;22.25;76.17
78313;BME280;67568;47.438;21.408;2023-07-02T06:55:05;99626.53;;;22.32;75.67
78313;BME280;67568;47.438;21.408;2023-07-02T06:57:32;99633.41;;;22.38;75.53
78313;BME280;67568;47.438;21.408;2023-07-02T06:59:59;99634.19;;;22.38;75.38
78313;BME280;67568;47.438;21.408;2023-07-02T07:02:27;99637.03;;;22.42;75.19
78313;BME280;67568;47.438;21.408;2023-07-02T07:04:53;99634.59;;;22.37;75.83
78313;BME280;67568;47.438;21.408;2023-07-02T07:07:20;99647.47;;;22.27;75.91
78313;BME280;67568;47.438;21.408;2023-07-02T07:09:47;99639.03;;;22.38;75.19
78313;BME280;67568;47.438;21.408;2023-07-02T07:12:14;99639.47;;;22.47;74.99
78313;BME280;67568;47.438;21.408;2023-07-02T07:14:41;99638.66;;;22.50;74.74
78313;BME280;67568;47.438;21.408;2023-07-02T07:17:08;99647.94;;;22.51;74.79
78313;BME280;67568;47.438;21.408;2023-07-02T07:19:34;99645.53;;;22.53;74.24
78313;BME280;67568;47.438;21.408;2023-07-02T07:22:01;99644.72;;;22.52;74.16
78313;BME280;67568;47.438;21.408;2023-07-02T07:24:28;99655.22;;;22.52;73.86
78313;BME280;67568;47.438;21.408;2023-07-02T07:26:54;99654.81;;;22.67;73.69
78313;BME280;67568;47.438;21.408;2023-07-02T07:29:21;99667.34;;;22.77;73.45
78313;BME280;67568;47.438;21.408;2023-07-02T07:31:48;99664.13;;;22.75;73.03
78313;BME280;67568;47.438;21.408;2023-07-02T07:34:15;99665.72;;;22.69;73.36
78313;BME280;67568;47.438;21.408;2023-07-02T07:36:42;99668.13;;;22.71;73.06
78313;BME280;67568;47.438;21.408;2023-07-02T07:39:09;99665.31;;;22.67;72.40
78313;BME280;67568;47.438;21.408;2023-07-02T07:41:35;99670.56;;;22.90;71.23
78313;BME280;67568;47.438;21.408;2023-07-02T07:44:02;99668.56;;;22.94;71.24
78313;BME280;67568;47.438;21.408;2023-07-02T07:46:29;99668.19;;;22.96;71.85
78313;BME280;67568;47.438;21.408;2023-07-02T07:48:56;99673.84;;;23.06;71.09
78313;BME280;67568;47.438;21.408;2023-07-02T07:51:22;99673.44;;;23.19;70.79
78313;BME280;67568;47.438;21.408;2023-07-02T07:53:49;99675.84;;;23.49;68.91
78313;BME280;67568;47.438;21.408;2023-07-02T07:56:16;99672.16;;;23.73;68.57
78313;BME280;67568;47.438;21.408;2023-07-02T07:58:43;99672.53;;;23.86;69.08
78313;BME280;67568;47.438;21.408;2023-07-02T08:01:10;99667.53;;;24.19;68.21
78313;BME280;67568;47.438;21.408;2023-07-02T08:03:37;99669.44;;;24.51;66.94
78313;BME280;67568;47.438;21.408;2023-07-02T08:06:05;99671.88;;;24.41;67.61
78313;BME280;67568;47.438;21.408;2023-07-02T08:08:34;99680.03;;;24.32;68.94
78313;BME280;67568;47.438;21.408;2023-07-02T08:11:01;99671.13;;;24.30;70.59
78313;BME280;67568;47.438;21.408;2023-07-02T08:13:27;99683.81;;;23.93;71.13
78313;BME280;67568;47.438;21.408;2023-07-02T08:15:54;99687.53;;;23.58;72.00
78313;BME280;67568;47.438;21.408;2023-07-02T08:18:21;99672.97;;;23.63;72.07
78313;BME280;67568;47.438;21.408;2023-07-02T08:20:48;99675.22;;;24.26;70.43
78313;BME280;67568;47.438;21.408;2023-07-02T08:23:15;99681.69;;;24.22;71.20
78313;BME280;67568;47.438;21.408;2023-07-02T08:25:42;99674.47;;;24.11;71.96
78313;BME280;67568;47.438;21.408;2023-07-02T08:28:08;99682.91;;;24.25;71.43
78313;BME280;67568;47.438;21.408;2023-07-02T08:30:40;99683.09;;;24.66;70.35
78313;BME280;67568;47.438;21.408;2023-07-02T08:33:06;99689.38;;;24.92;69.27
78313;BME280;67568;47.438;21.408;2023-07-02T08:35:33;99671.47;;;25.06;68.78
78313;BME280;67568;47.438;21.408;2023-07-02T08:38:00;99678.00;;;24.96;68.38
78313;BME280;67568;47.438;21.408;2023-07-02T08:40:27;99685.22;;;25.07;68.88
78313;BME280;67568;47.438;21.408;2023-07-02T08:42:53;99684.13;;;24.94;68.95
78313;BME280;67568;47.438;21.408;2023-07-02T08:45:23;99680.69;;;25.21;67.82
78313;BME280;67568;47.438;21.408;2023-07-02T08:47:50;99685.94;;;25.19;68.23
78313;BME280;67568;47.438;21.408;2023-07-02T08:50:17;99677.84;;;25.21;67.49
78313;BME280;67568;47.438;21.408;2023-07-02T08:52:44;99678.00;;;24.96;68.35
78313;BME280;67568;47.438;21.408;2023-07-02T08:55:11;99683.78;;;24.85;67.95
78313;BME280;67568;47.438;21.408;2023-07-02T08:57:38;99686.63;;;24.85;67.62
78313;BME280;67568;47.438;21.408;2023-07-02T09:00:09;99683.41;;;24.79;65.72
78313;BME280;67568;47.438;21.408;2023-07-02T09:02:36;99681.16;;;25.08;64.79
78313;BME280;67568;47.438;21.408;2023-07-02T09:05:04;99681.00;;;25.30;63.73
78313;BME280;67568;47.438;21.408;2023-07-02T09:07:31;99683.34;;;25.42;64.15
78313;BME280;67568;47.438;21.408;2023-07-02T09:09:58;99671.03;;;25.56;63.51
78313;BME280;67568;47.438;21.408;2023-07-02T09:12:30;99674.25;;;25.58;63.13
78313;BME280;67568;47.438;21.408;2023-07-02T09:14:59;99684.94;;;25.81;62.86
78313;BME280;67568;47.438;21.408;2023-07-02T09:17:31;99678.84;;;25.86;60.06
78313;BME280;67568;47.438;21.408;2023-07-02T09:20:01;99683.88;;;25.68;60.67
78313;BME280;67568;47.438;21.408;2023-07-02T09:22:28;99682.06;;;25.88;60.09
78313;BME280;67568;47.438;21.408;2023-07-02T09:24:57;99681.13;;;25.98;59.42
78313;BME280;67568;47.438;21.408;2023-07-02T09:27:38;99685.97;;;26.01;59.34
78313;BME280;67568;47.438;21.408;2023-07-02T09:30:13;99688.13;;;26.21;58.19
78313;BME280;67568;47.438;21.408;2023-07-02T09:32:40;99691.69;;;26.29;56.74
78313;BME280;67568;47.438;21.408;2023-07-02T09:35:08;99683.22;;;26.25;56.43
78313;BME280;67568;47.438;21.408;2023-07-02T09:37:35;99686.75;;;26.36;56.32
78313;BME280;67568;47.438;21.408;2023-07-02T09:40:03;99685.41;;;26.44;55.68
78313;BME280;67568;47.438;21.408;2023-07-02T09:42:33;99685.97;;;26.32;56.56
78313;BME280;67568;47.438;21.408;2023-07-02T09:45:07;99690.00;;;26.35;55.93
78313;BME280;67568;47.438;21.408;2023-07-02T09:47:37;99686.75;;;26.36;56.28
78313;BME280;67568;47.438;21.408;2023-07-02T09:50:07;99687.69;;;26.57;55.85
78313;BME280;67568;47.438;21.408;2023-07-02T09:52:35;99687.50;;;26.71;55.54
78313;BME280;67568;47.438;21.408;2023-07-02T09:55:02;99678.31;;;26.60;55.80
78313;BME280;67568;47.438;21.408;2023-07-02T09:57:29;99687.41;;;26.78;54.80
78313;BME280;67568;47.438;21.408;2023-07-02T09:59:56;99681.28;;;26.80;54.44
78313;BME280;67568;47.438;21.408;2023-07-02T10:02:23;99679.88;;;26.91;53.73
78313;BME280;67568;47.438;21.408;2023-07-02T10:04:49;99688.00;;;26.89;53.93
78313;BME280;67568;47.438;21.408;2023-07-02T10:07:30;99682.28;;;26.93;53.55
78313;BME280;67568;47.438;21.408;2023-07-02T10:09:57;99686.03;;;26.86;53.63
78313;BME280;67568;47.438;21.408;2023-07-02T10:12:26;99674.41;;;26.77;53.99
78313;BME280;67568;47.438;21.408;2023-07-02T10:14:57;99673.44;;;26.60;52.81
78313;BME280;67568;47.438;21.408;2023-07-02T10:17:34;99676.94;;;26.95;53.01
78313;BME280;67568;47.438;21.408;2023-07-02T10:20:06;99680.56;;;26.99;52.65
78313;BME280;67568;47.438;21.408;2023-07-02T10:22:49;99671.09;;;27.06;52.38
78313;BME280;67568;47.438;21.408;2023-07-02T10:25:26;99671.34;;;27.19;51.89
78313;BME280;67568;47.438;21.408;2023-07-02T10:27:54;99671.22;;;26.99;52.62
78313;BME280;67568;47.438;21.408;2023-07-02T10:30:37;99660.72;;;26.96;52.87
78313;BME280;67568;47.438;21.408;2023-07-02T10:33:22;99661.31;;;26.83;52.56
78313;BME280;67568;47.438;21.408;2023-07-02T10:35:49;99658.53;;;27.03;53.22
78313;BME280;67568;47.438;21.408;2023-07-02T10:38:21;99647.34;;;27.20;52.22
78313;BME280;67568;47.438;21.408;2023-07-02T10:40:54;99644.31;;;27.30;52.15
78313;BME280;67568;47.438;21.408;2023-07-02T10:43:29;99645.28;;;27.20;52.36
78313;BME280;67568;47.438;21.408;2023-07-02T10:45:57;99638.53;;;27.34;52.16
78313;BME280;67568;47.438;21.408;2023-07-02T10:48:24;99643.81;;;27.35;52.27
78313;BME280;67568;47.438;21.408;2023-07-02T10:50:51;99642.00;;;27.45;50.89
78313;BME280;67568;47.438;21.408;2023-07-02T10:53:19;99628.44;;;27.53;51.67
78313;BME280;67568;47.438;21.408;2023-07-02T10:55:53;99637.88;;;27.70;51.10
78313;BME280;67568;47.438;21.408;2023-07-02T10:58:23;99623.94;;;27.75;51.17
78313;BME280;67568;47.438;21.408;2023-07-02T11:00:52;99627.72;;;27.69;51.63
78313;BME280;67568;47.438;21.408;2023-07-02T11:03:21;99618.75;;;27.70;51.42
78313;BME280;67568;47.438;21.408;2023-07-02T11:05:49;99622.88;;;27.66;51.83
78313;BME280;67568;47.438;21.408;2023-07-02T11:08:17;99611.66;;;27.78;51.18
78313;BME280;67568;47.438;21.408;2023-07-02T11:10:44;99607.44;;;27.67;51.86
78313;BME280;67568;47.438;21.408;2023-07-02T11:13:15;99613.22;;;27.83;51.42
78313;BME280;67568;47.438;21.408;2023-07-02T11:15:42;99609.44;;;27.90;51.58
78313;BME280;67568;47.438;21.408;2023-07-02T11:18:13;99593.34;;;27.99;51.68
78313;BME280;67568;47.438;21.408;2023-07-02T11:20:42;99593.81;;;27.98;51.40
78313;BME280;67568;47.438;21.408;2023-07-02T11:23:23;99589.91;;;28.08;49.56
78313;BME280;67568;47.438;21.408;2023-07-02T11:25:58;99592.59;;;28.15;49.03
78313;BME280;67568;47.438;21.408;2023-07-02T11:28:29;99592.84;;;28.05;48.58
78313;BME280;67568;47.438;21.408;2023-07-02T11:30:56;99592.94;;;28.17;48.54
78313;BME280;67568;47.438;21.408;2023-07-02T11:33:39;99588.13;;;28.14;48.44
78313;BME280;67568;47.438;21.408;2023-07-02T11:36:07;99582.72;;;28.20;48.97
78313;BME280;67568;47.438;21.408;2023-07-02T11:38:36;99589.78;;;27.75;50.35
78313;BME280;67568;47.438;21.408;2023-07-02T11:41:03;99589.81;;;27.52;51.42
78313;BME280;67568;47.438;21.408;2023-07-02T11:43:30;99592.25;;;27.73;51.15
78313;BME280;67568;47.438;21.408;2023-07-02T11:45:57;99587.28;;;27.77;50.80
78313;BME280;67568;47.438;21.408;2023-07-02T11:48:24;99591.00;;;27.74;50.77
78313;BME280;67568;47.438;21.408;2023-07-02T11:50:50;99585.09;;;27.65;51.34
78313;BME280;67568;47.438;21.408;2023-07-02T11:53:17;99598.03;;;27.70;51.10
78313;BME280;67568;47.438;21.408;2023-07-02T11:55:44;99613.34;;;27.76;51.86
78313;BME280;67568;47.438;21.408;2023-07-02T11:58:11;99616.63;;;27.74;52.26
78313;BME280;67568;47.438;21.408;2023-07-02T12:00:38;99625.59;;;27.29;52.22
78313;BME280;67568;47.438;21.408;2023-07-02T12:03:05;99615.72;;;26.90;52.89
78313;BME280;67568;47.438;21.408;2023-07-02T12:05:31;99609.78;;;26.54;54.01
78313;BME280;67568;47.438;21.408;2023-07-02T12:08:01;99615.81;;;26.29;53.99
78313;BME280;67568;47.438;21.408;2023-07-02T12:10:28;99615.53;;;25.89;54.09
78313;BME280;67568;47.438;21.408;2023-07-02T12:12:55;99617.66;;;25.82;53.98
78313;BME280;67568;47.438;21.408;2023-07-02T12:15:22;99612.78;;;25.82;54.28
78313;BME280;67568;47.438;21.408;2023-07-02T12:17:48;99614.47;;;25.76;53.90
78313;BME280;67568;47.438;21.408;2023-07-02T12:20:15;99610.09;;;25.68;54.04
78313;BME280;67568;47.438;21.408;2023-07-02T12:22:42;99610.22;;;25.57;54.30
78313;BME280;67568;47.438;21.408;2023-07-02T12:25:09;99610.28;;;25.50;55.42
78313;BME280;67568;47.438;21.408;2023-07-02T12:27:35;99603.38;;;25.17;58.57
78313;BME280;67568;47.438;21.408;2023-07-02T12:30:02;99596.88;;;25.16;58.69
78313;BME280;67568;47.438;21.408;2023-07-02T12:32:29;99597.72;;;25.09;59.79
78313;BME280;67568;47.438;21.408;2023-07-02T12:34:56;99594.13;;;25.05;61.46
78313;BME280;67568;47.438;21.408;2023-07-02T12:37:22;99597.09;;;24.91;63.62
78313;BME280;67568;47.438;21.408;2023-07-02T12:39:49;99597.84;;;24.95;65.21
78313;BME280;67568;47.438;21.408;2023-07-02T12:42:16;99600.28;;;24.97;65.83
78313;BME280;67568;47.438;21.408;2023-07-02T12:44:43;99599.34;;;25.10;65.78
78313;BME280;67568;47.438;21.408;2023-07-02T12:47:09;99604.13;;;25.21;65.67
78313;BME280;67568;47.438;21.408;2023-07-02T12:49:36;99612.53;;;25.31;65.98
78313;BME280;67568;47.438;21.408;2023-07-02T12:52:03;99622.13;;;25.41;65.87
78313;BME280;67568;47.438;21.408;2023-07-02T12:54:30;99615.66;;;25.41;65.68
78313;BME280;67568;47.438;21.408;2023-07-02T12:56:56;99617.69;;;25.40;65.70